createdAt,value
2019-05-17T00:02:26.749Z,15.05
2019-05-17T00:04:56.506Z,15.83
2019-05-17T00:07:27.262Z,14.07
2019-05-17T00:09:57.324Z,13.25
2019-05-17T00:12:27.266Z,14.40
2019-05-17T00:14:56.949Z,13.43
2019-05-17T00:17:26.991Z,15.00
2019-05-17T00:19:56.896Z,15.00
2019-05-17T00:22:27.084Z,14.90
2019-05-17T00:24:56.958Z,21.05
2019-05-17T00:27:26.695Z,16.27
2019-05-17T00:29:57.122Z,16.75
2019-05-17T00:32:27.450Z,14.43
2019-05-17T00:34:57.426Z,17.70
2019-05-17T00:37:27.253Z,16.12
2019-05-17T00:39:57.434Z,15.65
2019-05-17T00:42:27.583Z,17.35
2019-05-17T00:44:57.316Z,14.18
2019-05-17T00:47:27.066Z,18.07
2019-05-17T00:49:57.120Z,17.42
2019-05-17T00:52:27.350Z,22.05
2019-05-17T00:54:57.635Z,20.92
2019-05-17T00:57:27.793Z,21.87
2019-05-17T00:59:57.517Z,17.55
2019-05-17T01:02:27.254Z,17.67
2019-05-17T01:04:57.294Z,19.60
2019-05-17T01:07:27.048Z,17.48
2019-05-17T01:09:56.777Z,18.65
2019-05-17T01:12:27.189Z,17.20
2019-05-17T01:14:58.329Z,16.20
2019-05-17T01:17:28.173Z,15.68
2019-05-17T01:19:57.943Z,18.62
2019-05-17T01:22:27.646Z,16.60
2019-05-17T01:24:57.414Z,18.70
2019-05-17T01:27:27.323Z,19.45
2019-05-17T01:29:57.437Z,25.17
2019-05-17T01:32:27.211Z,20.92
2019-05-17T01:34:56.944Z,24.55
2019-05-17T01:37:27.676Z,23.95
2019-05-17T01:39:57.617Z,22.67
2019-05-17T01:42:27.367Z,25.30
2019-05-17T01:44:57.091Z,25.35
2019-05-17T01:47:27.338Z,25.57
2019-05-17T01:49:57.707Z,25.08
2019-05-17T01:52:27.667Z,23.32
2019-05-17T01:54:57.397Z,27.50
2019-05-17T01:57:27.549Z,27.50
2019-05-17T01:59:57.718Z,23.27
2019-05-17T02:02:32.657Z,24.52
2019-05-17T02:05:02.353Z,24.35
2019-05-17T02:07:32.554Z,24.77
2019-05-17T02:10:02.302Z,25.02
2019-05-17T02:12:31.998Z,22.37
2019-05-17T02:15:01.795Z,23.60
2019-05-17T02:17:31.486Z,24.80
2019-05-17T02:20:01.258Z,27.65
2019-05-17T02:26:02.901Z,27.27
2019-05-17T02:28:32.645Z,27.25
2019-05-17T02:31:03.496Z,23.87
2019-05-17T02:33:33.707Z,25.85
2019-05-17T02:36:03.445Z,23.80
2019-05-17T02:38:33.594Z,24.98
2019-05-17T02:41:03.814Z,24.77
2019-05-17T02:43:33.866Z,26.30
2019-05-17T02:46:04.217Z,26.62
2019-05-17T02:48:34.422Z,23.67
2019-05-17T02:51:04.359Z,22.65
2019-05-17T02:53:34.344Z,23.55
2019-05-17T02:56:04.111Z,25.35
2019-05-17T02:58:33.843Z,27.00
2019-05-17T03:04:23.603Z,24.80
2019-05-17T03:06:53.394Z,26.68
2019-05-17T03:09:23.229Z,24.65
2019-05-17T03:11:56.950Z,25.68
2019-05-17T03:14:24.899Z,24.50
2019-05-17T03:16:54.654Z,26.10
2019-05-17T03:19:24.389Z,27.37
2019-05-17T03:21:54.184Z,27.27
2019-05-17T03:24:23.911Z,28.05
2019-05-17T03:26:53.662Z,26.60
2019-05-17T03:29:23.442Z,28.80
2019-05-17T03:31:59.289Z,31.02
2019-05-17T03:34:26.343Z,30.37
2019-05-17T03:36:57.090Z,32.20
2019-05-17T03:39:27.173Z,27.65
2019-05-17T03:41:57.004Z,29.18
2019-05-17T03:44:27.111Z,26.20
2019-05-17T03:46:56.840Z,32.15
2019-05-17T03:49:26.620Z,24.10
2019-05-17T03:51:56.634Z,26.75
2019-05-17T03:54:26.333Z,31.17
2019-05-17T03:56:56.196Z,28.30
2019-05-17T03:59:26.039Z,29.37
2019-05-17T04:01:56.147Z,25.62
2019-05-17T04:04:25.924Z,30.12
2019-05-17T04:06:55.796Z,27.52
2019-05-17T04:09:25.507Z,30.17
2019-05-17T04:11:55.241Z,28.42
2019-05-17T04:14:25.253Z,30.40
2019-05-17T04:16:54.966Z,28.52
2019-05-17T04:19:25.071Z,31.70
2019-05-17T04:21:58.383Z,26.65
2019-05-17T04:29:34.506Z,31.15
2019-05-17T04:39:45.705Z,21.95
2019-05-17T04:47:23.493Z,24.63
2019-05-17T04:49:53.882Z,20.25
2019-05-17T05:00:04.505Z,15.18
2019-05-17T05:05:08.951Z,15.88
2019-05-17T05:18:02.205Z,13.43
2019-05-17T05:24:55.030Z,14.23
2019-05-17T05:25:35.330Z,14.00
2019-05-17T05:28:05.031Z,15.32
2019-05-17T05:30:34.708Z,14.55
2019-05-17T05:33:04.376Z,13.53
2019-05-17T05:35:34.014Z,13.60
2019-05-17T05:38:03.737Z,13.50
2019-05-17T05:40:33.388Z,15.30
2019-05-17T05:43:03.170Z,12.13
2019-05-17T05:45:32.876Z,13.93
2019-05-17T05:48:02.512Z,12.82
2019-05-17T05:50:32.459Z,12.03
2019-05-17T05:53:02.378Z,12.03
2019-05-17T05:55:32.304Z,11.43
2019-05-17T05:58:03.002Z,10.90
2019-05-17T06:00:33.114Z,12.70
2019-05-17T06:03:04.222Z,10.68
2019-05-17T06:05:34.057Z,12.18
2019-05-17T06:08:05.428Z,11.08
2019-05-17T06:10:35.175Z,11.10
2019-05-17T06:13:04.811Z,10.88
2019-05-17T06:15:34.775Z,10.08
2019-05-17T06:18:04.400Z,13.70
2019-05-17T06:20:34.837Z,11.85
2019-05-17T06:23:04.627Z,10.65
2019-05-17T06:25:35.865Z,12.88
2019-05-17T06:28:05.649Z,11.88
2019-05-17T06:30:35.355Z,12.25
2019-05-17T06:33:05.096Z,13.38
2019-05-17T06:35:34.792Z,11.33
2019-05-17T06:38:04.528Z,11.33
2019-05-17T06:40:34.234Z,12.43
2019-05-17T06:43:04.401Z,12.70
2019-05-17T06:45:34.236Z,12.90
2019-05-17T06:48:04.196Z,17.32
2019-05-17T06:50:33.884Z,16.80
2019-05-17T06:53:03.608Z,15.35
2019-05-17T06:55:33.483Z,18.17
2019-05-17T06:58:03.201Z,16.62
2019-05-17T07:00:32.852Z,15.10
2019-05-17T07:03:02.741Z,17.23
2019-05-17T07:05:34.511Z,16.07
2019-05-17T07:08:04.174Z,15.65
2019-05-17T07:10:33.917Z,17.40
2019-05-17T07:13:03.785Z,15.15
2019-05-17T07:15:43.883Z,19.50
2019-05-17T07:18:04.776Z,16.50
2019-05-17T07:20:34.534Z,13.43
2019-05-17T07:23:04.237Z,17.05
2019-05-17T07:25:33.913Z,12.68
2019-05-17T07:28:03.719Z,13.48
2019-05-17T07:30:33.382Z,14.33
2019-05-17T07:33:03.105Z,12.95
2019-05-17T07:35:32.786Z,12.85
2019-05-17T07:38:02.455Z,13.60
2019-05-17T07:40:32.200Z,13.35
2019-05-17T07:43:10.426Z,13.32
2019-05-17T07:45:33.248Z,13.90
2019-05-17T07:48:02.937Z,12.63
2019-05-17T07:50:32.631Z,13.38
2019-05-17T07:53:02.342Z,14.20
2019-05-17T07:55:32.029Z,13.43
2019-05-17T07:58:01.728Z,13.62
2019-05-17T08:00:31.436Z,17.12
2019-05-17T08:03:01.218Z,13.18
2019-05-17T08:05:32.507Z,10.90
2019-05-17T08:08:02.226Z,11.57
2019-05-17T08:10:33.282Z,11.43
2019-05-17T08:13:02.938Z,11.48
2019-05-17T08:15:32.955Z,11.60
2019-05-17T08:18:02.652Z,11.85
2019-05-17T08:20:32.389Z,11.28
2019-05-17T08:23:04.949Z,12.75
2019-05-17T08:25:33.482Z,11.45
2019-05-17T08:28:03.232Z,14.03
2019-05-17T08:30:32.874Z,13.15
2019-05-17T08:33:02.690Z,10.85
2019-05-17T08:35:32.413Z,11.55
2019-05-17T08:38:02.201Z,12.07
2019-05-17T08:40:36.029Z,12.53
2019-05-17T08:43:04.990Z,14.73
2019-05-17T08:45:36.770Z,13.93
2019-05-17T08:48:06.502Z,10.98
2019-05-17T08:52:29.362Z,12.90
2019-05-17T08:53:10.397Z,10.30
2019-05-17T08:56:52.424Z,9.85
2019-05-17T08:58:12.888Z,12.43
2019-05-17T09:00:44.202Z,9.20
2019-05-17T09:03:15.608Z,12.20
2019-05-17T09:05:52.362Z,10.70
2019-05-17T09:08:20.676Z,11.40
2019-05-17T09:10:50.700Z,10.45
2019-05-17T09:13:20.999Z,12.00
2019-05-17T09:15:50.682Z,11.83
2019-05-17T09:18:23.025Z,11.57
2019-05-17T09:20:56.406Z,12.23
2019-05-17T09:23:25.871Z,12.45
2019-05-17T09:26:09.913Z,11.65
2019-05-17T09:28:29.969Z,11.35
2019-05-17T09:31:04.156Z,12.98
2019-05-17T09:33:31.609Z,12.80
2019-05-17T09:36:01.493Z,10.85
2019-05-17T09:38:32.676Z,10.03
2019-05-17T09:41:03.238Z,11.12
2019-05-17T09:43:33.009Z,9.55
2019-05-17T09:46:02.738Z,9.23
2019-05-17T09:48:32.461Z,8.80
2019-05-17T09:51:02.310Z,13.95
2019-05-17T09:53:31.988Z,9.50
2019-05-17T09:56:01.743Z,9.70
2019-05-17T09:58:31.410Z,7.28
2019-05-17T10:01:01.617Z,8.30
2019-05-17T10:03:31.648Z,8.13
2019-05-17T10:06:01.417Z,8.73
2019-05-17T10:08:31.106Z,10.45
2019-05-17T10:11:08.562Z,6.95
2019-05-17T10:13:36.367Z,7.08
2019-05-17T10:16:06.331Z,8.28
2019-05-17T10:18:36.084Z,7.62
2019-05-17T10:21:05.787Z,7.78
2019-05-17T10:23:35.539Z,5.78
2019-05-17T10:26:05.212Z,6.00
2019-05-17T10:28:35.161Z,5.95
2019-05-17T10:31:04.903Z,6.60
2019-05-17T10:33:34.654Z,6.85
2019-05-17T10:36:04.376Z,6.25
2019-05-17T10:38:34.091Z,6.33
2019-05-17T10:41:03.874Z,6.08
2019-05-17T10:43:33.602Z,6.10
2019-05-17T10:46:03.342Z,5.83
2019-05-17T10:48:33.054Z,5.12
2019-05-17T10:51:02.932Z,5.50
2019-05-17T10:53:32.581Z,6.60
2019-05-17T10:56:02.235Z,5.95
2019-05-17T10:58:31.930Z,5.20
2019-05-17T11:01:01.660Z,4.37
2019-05-17T11:03:31.361Z,4.95
2019-05-17T11:06:02.444Z,5.12
2019-05-17T11:08:32.193Z,4.20
2019-05-17T11:11:01.890Z,3.62
2019-05-17T11:13:31.595Z,4.00
2019-05-17T11:16:01.329Z,4.53
2019-05-17T11:18:31.036Z,4.22
2019-05-17T11:21:00.838Z,3.98
2019-05-17T11:23:30.540Z,5.05
2019-05-17T11:26:00.252Z,6.05
2019-05-17T11:28:29.992Z,6.90
2019-05-17T11:30:59.696Z,6.55
2019-05-17T11:33:29.344Z,4.50
2019-05-17T11:35:59.034Z,6.83
2019-05-17T11:38:28.788Z,18.48
2019-05-17T11:40:58.462Z,4.78
2019-05-17T11:43:28.320Z,4.40
2019-05-17T11:45:58.329Z,4.97
2019-05-17T11:48:28.053Z,7.12
2019-05-17T11:50:58.002Z,4.33
2019-05-17T11:53:27.677Z,3.80
2019-05-17T11:55:58.681Z,5.05
2019-05-17T11:58:28.400Z,4.78
2019-05-17T12:00:58.329Z,4.67
2019-05-17T12:03:27.979Z,4.85
2019-05-17T12:05:57.705Z,5.40
2019-05-17T12:08:27.563Z,5.10
2019-05-17T12:10:57.363Z,6.35
2019-05-17T12:13:27.044Z,4.65
2019-05-17T12:15:56.746Z,7.22
2019-05-17T12:18:26.463Z,7.30
2019-05-17T12:20:56.177Z,6.28
2019-05-17T12:23:25.887Z,4.20
2019-05-17T12:25:55.627Z,4.50
2019-05-17T12:28:25.386Z,4.78
2019-05-17T12:30:55.039Z,4.53
2019-05-17T12:33:24.713Z,5.80
2019-05-17T12:35:54.399Z,5.03
2019-05-17T12:38:24.117Z,8.40
2019-05-17T12:40:53.807Z,4.65
2019-05-17T12:43:23.510Z,6.05
2019-05-17T12:46:00.612Z,5.58
2019-05-17T12:48:24.552Z,3.67
2019-05-17T12:50:54.330Z,4.53
2019-05-17T12:53:24.067Z,4.03
2019-05-17T12:55:53.689Z,4.20
2019-05-17T12:58:23.374Z,3.98
2019-05-17T13:00:53.054Z,4.58
2019-05-17T13:03:23.065Z,3.33
2019-05-17T13:05:52.779Z,4.20
2019-05-17T13:08:22.436Z,6.22
2019-05-17T13:10:52.424Z,3.50
2019-05-17T13:13:22.422Z,4.28
2019-05-17T13:15:52.115Z,3.45
2019-05-17T13:18:21.924Z,4.33
2019-05-17T13:20:51.534Z,3.62
2019-05-17T13:23:21.233Z,3.60
2019-05-17T13:25:50.868Z,2.75
2019-05-17T13:28:20.560Z,2.83
2019-05-17T13:30:50.214Z,3.35
2019-05-17T13:33:19.929Z,2.80
2019-05-17T13:35:49.770Z,3.00
2019-05-17T13:38:19.542Z,2.55
2019-05-17T13:40:49.242Z,4.60
2019-05-17T13:43:19.025Z,5.87
2019-05-17T13:45:48.713Z,2.50
2019-05-17T13:48:18.564Z,4.05
2019-05-17T13:50:51.791Z,2.83
2019-05-17T13:53:20.154Z,4.15
2019-05-17T13:55:51.442Z,3.67
2019-05-17T13:58:22.596Z,3.62
2019-05-17T14:00:52.318Z,2.72
2019-05-17T14:03:21.997Z,3.40
2019-05-17T14:05:51.981Z,3.12
2019-05-17T14:08:21.781Z,3.35
2019-05-17T14:10:51.507Z,3.67
2019-05-17T14:13:21.307Z,4.22
2019-05-17T14:15:51.049Z,3.77
2019-05-17T14:18:20.762Z,2.77
2019-05-17T14:20:50.452Z,5.17
2019-05-17T14:23:20.250Z,3.55
2019-05-17T14:25:49.937Z,2.62
2019-05-17T14:28:19.891Z,2.52
2019-05-17T14:30:49.618Z,2.52
2019-05-17T14:33:19.463Z,2.58
2019-05-17T14:35:49.145Z,2.90
2019-05-17T14:38:18.988Z,2.30
2019-05-17T14:41:05.647Z,2.83
2019-05-17T14:43:20.233Z,3.60
2019-05-17T14:45:50.144Z,2.20
2019-05-17T14:48:19.843Z,2.67
2019-05-17T14:50:49.568Z,2.87
2019-05-17T14:53:19.237Z,2.12
2019-05-17T14:55:51.707Z,4.33
2019-05-17T14:58:21.340Z,2.42
2019-05-17T15:00:51.179Z,2.20
2019-05-17T15:03:20.903Z,3.17
2019-05-17T15:05:50.658Z,2.05
2019-05-17T15:10:56.342Z,3.12
2019-05-17T15:16:02.274Z,3.12
2019-05-17T15:19:44.489Z,3.02
2019-05-17T15:23:39.834Z,1.60
2019-05-17T15:26:09.580Z,2.33
2019-05-17T15:28:39.307Z,3.85
2019-05-17T15:31:08.968Z,2.15
2019-05-17T15:33:38.918Z,2.22
2019-05-17T15:36:08.792Z,1.75
2019-05-17T15:38:38.462Z,3.20
2019-05-17T15:41:08.108Z,2.00
2019-05-17T15:43:37.817Z,2.85
2019-05-17T15:46:07.568Z,1.95
2019-05-17T15:48:37.270Z,2.27
2019-05-17T15:51:07.045Z,3.35
2019-05-17T15:53:36.784Z,1.75
2019-05-17T15:56:06.754Z,5.72
2019-05-17T15:58:37.650Z,1.92
2019-05-17T16:01:07.348Z,1.20
2019-05-17T16:03:37.345Z,2.37
2019-05-17T16:06:07.203Z,1.40
2019-05-17T16:08:37.014Z,2.27
2019-05-17T16:11:06.868Z,1.70
2019-05-17T16:13:37.836Z,2.72
2019-05-17T16:16:07.524Z,3.80
2019-05-17T16:18:37.434Z,1.15
2019-05-17T16:24:39.492Z,2.95
2019-05-17T16:27:09.139Z,3.77
2019-05-17T16:29:38.840Z,4.15
2019-05-17T16:32:08.591Z,2.87
2019-05-17T16:34:38.378Z,3.60
2019-05-17T16:37:17.086Z,2.27
2019-05-17T16:39:46.793Z,3.02
2019-05-17T16:42:16.529Z,2.90
2019-05-17T16:44:46.214Z,2.30
2019-05-17T16:47:29.498Z,1.80
2019-05-17T16:49:50.630Z,2.45
2019-05-17T16:52:20.361Z,2.00
2019-05-17T16:54:50.297Z,3.60
2019-05-17T16:57:20.014Z,1.60
2019-05-17T16:59:49.876Z,1.92
2019-05-17T17:02:19.583Z,2.00
2019-05-17T17:04:49.302Z,3.15
2019-05-17T17:07:19.156Z,3.08
2019-05-17T17:09:51.167Z,1.95
2019-05-17T17:12:20.527Z,2.90
2019-05-17T17:14:51.547Z,1.98
2019-05-17T17:17:22.615Z,1.60
2019-05-17T17:19:56.005Z,1.45
2019-05-17T17:22:25.252Z,1.72
2019-05-17T17:24:55.419Z,1.62
2019-05-17T17:27:25.295Z,3.05
2019-05-17T17:29:55.222Z,2.40
2019-05-17T17:34:59.215Z,2.77
2019-05-17T17:37:29.005Z,3.65
2019-05-17T17:40:06.491Z,2.08
2019-05-17T17:42:33.836Z,4.05
2019-05-17T17:45:03.084Z,2.52
2019-05-17T17:47:32.795Z,1.87
2019-05-17T17:50:02.492Z,2.10
2019-05-17T17:52:34.913Z,2.15
2019-05-17T17:55:03.566Z,2.62
2019-05-17T17:57:33.609Z,3.52
2019-05-17T18:00:03.308Z,1.50
2019-05-17T18:02:33.077Z,2.05
2019-05-17T18:05:03.027Z,3.08
2019-05-17T18:07:32.911Z,1.37
2019-05-17T18:10:03.971Z,1.95
2019-05-17T18:12:38.199Z,4.22
2019-05-17T18:15:10.160Z,4.70
2019-05-17T18:17:58.780Z,5.05
2019-05-17T18:20:30.259Z,2.20
2019-05-17T18:22:51.185Z,2.02
2019-05-17T18:25:22.608Z,2.05
2019-05-17T18:27:54.146Z,1.50
2019-05-17T18:30:24.647Z,1.45
2019-05-17T18:32:55.370Z,1.77
2019-05-17T18:35:26.863Z,2.80
2019-05-17T18:37:56.517Z,1.80
2019-05-17T18:40:26.245Z,4.10
2019-05-17T18:42:55.891Z,1.57
2019-05-17T18:45:25.686Z,1.57
2019-05-17T18:47:57.417Z,1.70
2019-05-17T18:50:26.790Z,2.10
2019-05-17T18:52:56.830Z,5.85
2019-05-17T18:55:32.814Z,4.40
2019-05-17T18:58:09.976Z,2.77
2019-05-17T19:03:09.647Z,3.33
2019-05-17T19:05:51.150Z,2.10
2019-05-17T19:08:13.445Z,2.00
2019-05-17T19:10:44.959Z,2.30
2019-05-17T19:13:16.637Z,1.92
2019-05-17T19:15:50.954Z,2.05
2019-05-17T19:18:20.015Z,3.17
2019-05-17T19:20:49.546Z,2.37
2019-05-17T19:23:19.314Z,2.08
2019-05-17T19:25:49.152Z,1.62
2019-05-17T19:28:45.326Z,2.30
2019-05-17T19:31:14.462Z,2.37
2019-05-17T19:33:45.680Z,2.58
2019-05-17T19:36:17.984Z,1.57
2019-05-17T19:39:11.317Z,2.67
2019-05-17T19:41:20.353Z,1.92
2019-05-17T19:43:50.371Z,1.70
2019-05-17T19:46:20.077Z,1.82
2019-05-17T19:48:51.066Z,1.60
2019-05-17T19:51:21.129Z,2.02
2019-05-17T19:53:52.445Z,4.42
2019-05-17T19:56:22.224Z,2.17
2019-05-17T19:58:53.475Z,2.42
2019-05-17T20:01:26.446Z,2.05
2019-05-17T20:03:56.187Z,1.52
2019-05-17T20:06:26.129Z,3.67
2019-05-17T20:08:59.383Z,2.37
2019-05-17T20:11:34.452Z,1.82
2019-05-17T20:14:00.305Z,2.67
2019-05-17T20:16:29.998Z,4.78
2019-05-17T20:18:59.714Z,2.40
2019-05-17T20:21:29.474Z,2.80
2019-05-17T20:23:59.273Z,3.42
2019-05-17T20:26:28.997Z,1.90
2019-05-17T20:28:58.795Z,2.40
2019-05-17T20:31:28.837Z,2.47
2019-05-17T20:33:58.668Z,2.00
2019-05-17T20:36:29.433Z,4.53
2019-05-17T20:38:59.126Z,4.65
2019-05-17T20:41:29.001Z,3.65
2019-05-17T20:43:58.680Z,3.62
2019-05-17T20:46:30.617Z,7.90
2019-05-17T20:48:59.914Z,3.45
2019-05-17T20:51:29.738Z,3.00
2019-05-17T20:53:59.515Z,2.47
2019-05-17T20:56:32.982Z,3.70
2019-05-17T20:59:00.657Z,6.95
2019-05-17T21:01:35.123Z,3.58
2019-05-17T21:04:02.152Z,2.58
2019-05-17T21:06:31.912Z,4.12
2019-05-17T21:09:04.332Z,2.20
2019-05-17T21:11:35.708Z,2.75
2019-05-17T21:14:09.974Z,2.47
2019-05-17T21:16:38.708Z,3.40
2019-05-17T21:19:09.593Z,4.72
2019-05-17T21:21:40.573Z,2.37
2019-05-17T21:24:12.283Z,3.90
2019-05-17T21:26:46.274Z,6.47
2019-05-17T21:29:13.442Z,3.05
2019-05-17T21:31:44.740Z,3.70
2019-05-17T21:34:14.648Z,3.87
2019-05-17T21:36:44.429Z,4.40
2019-05-17T21:39:14.228Z,2.72
2019-05-17T21:41:45.113Z,3.08
2019-05-17T21:44:14.842Z,2.75
2019-05-17T21:47:03.421Z,3.67
2019-05-17T21:49:22.192Z,3.90
2019-05-17T21:51:49.736Z,2.95
2019-05-17T21:54:20.959Z,2.75
2019-05-17T21:56:52.231Z,2.83
2019-05-17T21:59:22.153Z,3.35
2019-05-17T22:01:53.949Z,2.77
2019-05-17T22:04:27.407Z,3.37
2019-05-17T22:06:56.822Z,2.83
2019-05-17T22:09:27.743Z,2.98
2019-05-17T22:12:00.547Z,3.37
2019-05-17T22:14:41.089Z,3.00
2019-05-17T22:17:04.571Z,5.97
2019-05-17T22:19:35.538Z,4.70
2019-05-17T22:23:16.367Z,6.12
2019-05-17T22:24:37.822Z,3.17
2019-05-17T22:27:15.359Z,3.50
2019-05-17T22:29:40.993Z,3.98
2019-05-17T22:32:10.772Z,2.87
2019-05-17T22:34:40.512Z,3.85
2019-05-17T22:37:10.494Z,3.02
2019-05-17T22:39:40.277Z,5.03
2019-05-17T22:42:10.103Z,4.00
2019-05-17T22:44:44.105Z,3.60
2019-05-17T22:47:12.563Z,3.47
2019-05-17T22:49:42.254Z,5.53
2019-05-17T22:52:13.131Z,3.87
2019-05-17T22:54:55.445Z,3.45
2019-05-17T22:57:16.305Z,4.40
2019-05-17T22:59:48.141Z,5.65
2019-05-17T23:02:19.407Z,3.12
2019-05-17T23:05:03.184Z,5.55
2019-05-17T23:07:30.868Z,3.87
2019-05-17T23:09:51.930Z,3.95
2019-05-17T23:12:23.252Z,5.28
2019-05-17T23:14:53.026Z,3.70
2019-05-17T23:17:25.163Z,5.03
2019-05-17T23:19:54.518Z,4.00
2019-05-17T23:22:24.336Z,4.12
2019-05-17T23:24:54.058Z,3.72
2019-05-17T23:27:34.070Z,3.08
2019-05-17T23:30:05.882Z,3.17
2019-05-17T23:32:26.743Z,3.65
2019-05-17T23:35:06.654Z,3.30
2019-05-17T23:37:27.880Z,4.08
2019-05-17T23:39:57.738Z,2.90
2019-05-17T23:42:27.434Z,4.08
2019-05-17T23:44:57.179Z,4.28
2019-05-17T23:47:28.468Z,3.87
2019-05-17T23:50:00.332Z,3.27
2019-05-17T23:52:31.695Z,5.08
2019-05-17T23:55:01.286Z,5.28
2019-05-17T23:57:33.290Z,3.20
